sensor_id;sensor_type;location;lat;lon;timestamp;temperature;humidity
4433;DHT22;2229;48.708;9.706;2022-12-20T00:00:48;4.10;99.90
4433;DHT22;2229;48.708;9.706;2022-12-20T00:03:16;4.20;99.90
4433;DHT22;2229;48.708;9.706;2022-12-20T00:05:45;4.20;99.90
4433;DHT22;2229;48.708;9.706;2022-12-20T00:08:14;4.20;99.90
4433;DHT22;2229;48.708;9.706;2022-12-20T00:10:43;4.30;99.90
4433;DHT22;2229;48.708;9.706;2022-12-20T00:13:12;4.30;99.90
4433;DHT22;2229;48.708;9.706;2022-12-20T00:15:39;4.30;99.90
4433;DHT22;2229;48.708;9.706;2022-12-20T00:18:06;4.30;99.90
4433;DHT22;2229;48.708;9.706;2022-12-20T00:20:34;4.40;99.90
4433;DHT22;2229;48.708;9.706;2022-12-20T00:23:03;4.30;99.90
4433;DHT22;2229;48.708;9.706;2022-12-20T00:25:32;4.30;99.90
4433;DHT22;2229;48.708;9.706;2022-12-20T00:27:59;4.20;99.90
4433;DHT22;2229;48.708;9.706;2022-12-20T00:30:27;4.10;99.90
4433;DHT22;2229;48.708;9.706;2022-12-20T00:32:56;4.10;99.90
4433;DHT22;2229;48.708;9.706;2022-12-20T00:35:23;4.10;99.90
4433;DHT22;2229;48.708;9.706;2022-12-20T00:37:51;4.10;99.90
4433;DHT22;2229;48.708;9.706;2022-12-20T00:40:18;4.10;99.90
4433;DHT22;2229;48.708;9.706;2022-12-20T00:42:47;4.20;99.90
4433;DHT22;2229;48.708;9.706;2022-12-20T00:45:14;4.10;99.90
4433;DHT22;2229;48.708;9.706;2022-12-20T00:47:43;4.10;99.90
4433;DHT22;2229;48.708;9.706;2022-12-20T00:50:10;4.10;99.90
4433;DHT22;2229;48.708;9.706;2022-12-20T00:52:38;4.00;99.90
4433;DHT22;2229;48.708;9.706;2022-12-20T00:55:05;4.00;99.90
4433;DHT22;2229;48.708;9.706;2022-12-20T00:57:32;4.00;99.90
4433;DHT22;2229;48.708;9.706;2022-12-20T01:00:03;4.00;99.90
4433;DHT22;2229;48.708;9.706;2022-12-20T01:02:34;4.00;99.90
4433;DHT22;2229;48.708;9.706;2022-12-20T01:05:01;3.90;99.90
4433;DHT22;2229;48.708;9.706;2022-12-20T01:07:30;3.80;99.90
4433;DHT22;2229;48.708;9.706;2022-12-20T01:09:57;3.80;99.90
4433;DHT22;2229;48.708;9.706;2022-12-20T01:12:24;3.80;99.90
4433;DHT22;2229;48.708;9.706;2022-12-20T01:14:51;3.70;99.90
4433;DHT22;2229;48.708;9.706;2022-12-20T01:17:21;3.60;99.90
4433;DHT22;2229;48.708;9.706;2022-12-20T01:19:48;3.60;99.90
4433;DHT22;2229;48.708;9.706;2022-12-20T01:22:15;3.60;99.90
4433;DHT22;2229;48.708;9.706;2022-12-20T01:24:42;3.50;99.90
4433;DHT22;2229;48.708;9.706;2022-12-20T01:27:09;3.50;99.90
4433;DHT22;2229;48.708;9.706;2022-12-20T01:29:36;3.50;99.90
4433;DHT22;2229;48.708;9.706;2022-12-20T01:32:04;3.50;99.90
4433;DHT22;2229;48.708;9.706;2022-12-20T01:34:33;3.50;99.90
4433;DHT22;2229;48.708;9.706;2022-12-20T01:37:00;3.50;99.90
4433;DHT22;2229;48.708;9.706;2022-12-20T01:39:27;3.50;99.90
4433;DHT22;2229;48.708;9.706;2022-12-20T01:41:54;3.40;99.90
4433;DHT22;2229;48.708;9.706;2022-12-20T01:44:51;3.40;99.90
4433;DHT22;2229;48.708;9.706;2022-12-20T01:47:20;3.40;99.90
4433;DHT22;2229;48.708;9.706;2022-12-20T01:49:51;3.40;99.90
4433;DHT22;2229;48.708;9.706;2022-12-20T01:52:25;3.40;99.90
4433;DHT22;2229;48.708;9.706;2022-12-20T01:54:56;3.30;99.90
4433;DHT22;2229;48.708;9.706;2022-12-20T01:57:31;3.30;99.90
4433;DHT22;2229;48.708;9.706;2022-12-20T02:00:03;3.40;99.90
4433;DHT22;2229;48.708;9.706;2022-12-20T02:02:40;3.40;99.90
4433;DHT22;2229;48.708;9.706;2022-12-20T02:05:09;3.50;99.90
4433;DHT22;2229;48.708;9.706;2022-12-20T02:07:37;3.60;99.90
4433;DHT22;2229;48.708;9.706;2022-12-20T02:10:08;3.70;99.90
4433;DHT22;2229;48.708;9.706;2022-12-20T02:12:39;3.70;99.90
4433;DHT22;2229;48.708;9.706;2022-12-20T02:15:33;3.70;99.90
4433;DHT22;2229;48.708;9.706;2022-12-20T02:18:12;3.60;99.90
4433;DHT22;2229;48.708;9.706;2022-12-20T02:21:02;3.60;99.90
4433;DHT22;2229;48.708;9.706;2022-12-20T02:23:49;3.50;99.90
4433;DHT22;2229;48.708;9.706;2022-12-20T02:26:40;3.50;99.90
4433;DHT22;2229;48.708;9.706;2022-12-20T02:29:23;3.50;99.90
4433;DHT22;2229;48.708;9.706;2022-12-20T02:32:01;3.50;99.90
4433;DHT22;2229;48.708;9.706;2022-12-20T02:34:34;3.50;99.90
4433;DHT22;2229;48.708;9.706;2022-12-20T02:37:02;3.50;99.90
4433;DHT22;2229;48.708;9.706;2022-12-20T02:39:31;3.60;99.90
4433;DHT22;2229;48.708;9.706;2022-12-20T02:42:03;3.70;99.90
4433;DHT22;2229;48.708;9.706;2022-12-20T02:44:33;3.70;99.90
4433;DHT22;2229;48.708;9.706;2022-12-20T02:47:24;3.80;99.90
4433;DHT22;2229;48.708;9.706;2022-12-20T02:49:53;3.80;99.90
4433;DHT22;2229;48.708;9.706;2022-12-20T02:52:23;3.80;99.90
4433;DHT22;2229;48.708;9.706;2022-12-20T02:54:52;3.80;99.90
4433;DHT22;2229;48.708;9.706;2022-12-20T02:57:26;3.90;99.90
4433;DHT22;2229;48.708;9.706;2022-12-20T03:00:01;3.90;99.90
4433;DHT22;2229;48.708;9.706;2022-12-20T03:02:34;4.00;99.90
4433;DHT22;2229;48.708;9.706;2022-12-20T03:05:15;4.10;99.90
4433;DHT22;2229;48.708;9.706;2022-12-20T03:07:43;4.20;99.90
4433;DHT22;2229;48.708;9.706;2022-12-20T03:10:10;4.30;99.90
4433;DHT22;2229;48.708;9.706;2022-12-20T03:12:38;4.40;99.90
4433;DHT22;2229;48.708;9.706;2022-12-20T03:15:06;4.50;99.90
4433;DHT22;2229;48.708;9.706;2022-12-20T03:17:35;4.60;99.90
4433;DHT22;2229;48.708;9.706;2022-12-20T03:20:03;4.60;99.90
4433;DHT22;2229;48.708;9.706;2022-12-20T03:22:31;4.60;99.90
4433;DHT22;2229;48.708;9.706;2022-12-20T03:24:58;4.70;99.90
4433;DHT22;2229;48.708;9.706;2022-12-20T03:27:27;4.70;99.90
4433;DHT22;2229;48.708;9.706;2022-12-20T03:29:56;4.80;99.90
4433;DHT22;2229;48.708;9.706;2022-12-20T03:32:23;4.80;99.90
4433;DHT22;2229;48.708;9.706;2022-12-20T03:34:52;4.90;99.90
4433;DHT22;2229;48.708;9.706;2022-12-20T03:37:26;4.90;99.90
4433;DHT22;2229;48.708;9.706;2022-12-20T03:39:54;5.00;99.90
4433;DHT22;2229;48.708;9.706;2022-12-20T03:42:21;5.00;99.90
4433;DHT22;2229;48.708;9.706;2022-12-20T03:44:48;5.00;99.90
4433;DHT22;2229;48.708;9.706;2022-12-20T03:47:16;5.00;99.90
4433;DHT22;2229;48.708;9.706;2022-12-20T03:49:45;5.00;99.90
4433;DHT22;2229;48.708;9.706;2022-12-20T03:52:14;5.10;99.90
4433;DHT22;2229;48.708;9.706;2022-12-20T03:54:42;5.10;99.90
4433;DHT22;2229;48.708;9.706;2022-12-20T03:57:15;5.10;99.90
4433;DHT22;2229;48.708;9.706;2022-12-20T03:59:44;5.10;99.90
4433;DHT22;2229;48.708;9.706;2022-12-20T04:02:14;5.20;99.90
4433;DHT22;2229;48.708;9.706;2022-12-20T04:04:42;5.20;99.90
4433;DHT22;2229;48.708;9.706;2022-12-20T04:07:10;5.20;99.90
4433;DHT22;2229;48.708;9.706;2022-12-20T04:09:41;5.20;99.90
4433;DHT22;2229;48.708;9.706;2022-12-20T04:12:12;5.20;99.90
4433;DHT22;2229;48.708;9.706;2022-12-20T04:14:39;5.20;99.90
4433;DHT22;2229;48.708;9.706;2022-12-20T04:17:06;5.20;99.90
4433;DHT22;2229;48.708;9.706;2022-12-20T04:19:35;5.20;99.90
4433;DHT22;2229;48.708;9.706;2022-12-20T04:22:05;5.20;99.90
4433;DHT22;2229;48.708;9.706;2022-12-20T04:24:52;5.20;99.90
4433;DHT22;2229;48.708;9.706;2022-12-20T04:27:23;5.20;99.90
4433;DHT22;2229;48.708;9.706;2022-12-20T04:29:52;5.10;99.90
4433;DHT22;2229;48.708;9.706;2022-12-20T04:32:21;5.20;99.90
4433;DHT22;2229;48.708;9.706;2022-12-20T04:34:49;5.10;99.90
4433;DHT22;2229;48.708;9.706;2022-12-20T04:37:16;5.10;99.90
4433;DHT22;2229;48.708;9.706;2022-12-20T04:39:48;5.10;99.90
4433;DHT22;2229;48.708;9.706;2022-12-20T04:42:20;5.10;99.90
4433;DHT22;2229;48.708;9.706;2022-12-20T04:44:48;5.10;99.90
4433;DHT22;2229;48.708;9.706;2022-12-20T04:47:21;5.10;99.90
4433;DHT22;2229;48.708;9.706;2022-12-20T04:49:48;4.90;99.90
4433;DHT22;2229;48.708;9.706;2022-12-20T04:52:15;4.90;99.90
4433;DHT22;2229;48.708;9.706;2022-12-20T04:55:00;4.90;99.90
4433;DHT22;2229;48.708;9.706;2022-12-20T04:57:32;4.90;99.90
4433;DHT22;2229;48.708;9.706;2022-12-20T04:59:59;4.90;99.90
4433;DHT22;2229;48.708;9.706;2022-12-20T05:02:28;4.90;99.90
4433;DHT22;2229;48.708;9.706;2022-12-20T05:05:02;4.90;99.90
4433;DHT22;2229;48.708;9.706;2022-12-20T05:07:34;4.90;99.90
4433;DHT22;2229;48.708;9.706;2022-12-20T05:10:02;4.90;99.90
4433;DHT22;2229;48.708;9.706;2022-12-20T05:12:31;4.90;99.90
4433;DHT22;2229;48.708;9.706;2022-12-20T05:15:02;4.80;99.90
4433;DHT22;2229;48.708;9.706;2022-12-20T05:17:30;4.80;99.90
4433;DHT22;2229;48.708;9.706;2022-12-20T05:19:57;4.80;99.90
4433;DHT22;2229;48.708;9.706;2022-12-20T05:22:25;4.80;99.90
4433;DHT22;2229;48.708;9.706;2022-12-20T05:25:11;4.90;99.90
4433;DHT22;2229;48.708;9.706;2022-12-20T05:28:02;4.90;99.90
4433;DHT22;2229;48.708;9.706;2022-12-20T05:30:33;4.90;99.90
4433;DHT22;2229;48.708;9.706;2022-12-20T05:33:00;5.00;99.90
4433;DHT22;2229;48.708;9.706;2022-12-20T05:35:29;5.00;99.90
4433;DHT22;2229;48.708;9.706;2022-12-20T05:38:03;5.10;99.90
4433;DHT22;2229;48.708;9.706;2022-12-20T05:40:30;5.10;99.90
4433;DHT22;2229;48.708;9.706;2022-12-20T05:42:58;5.20;99.90
4433;DHT22;2229;48.708;9.706;2022-12-20T05:45:35;5.10;99.90
4433;DHT22;2229;48.708;9.706;2022-12-20T05:48:09;5.10;99.90
4433;DHT22;2229;48.708;9.706;2022-12-20T05:50:39;5.00;99.90
4433;DHT22;2229;48.708;9.706;2022-12-20T05:53:27;5.00;99.90
4433;DHT22;2229;48.708;9.706;2022-12-20T05:55:58;5.00;99.90
4433;DHT22;2229;48.708;9.706;2022-12-20T05:58:30;5.00;99.90
4433;DHT22;2229;48.708;9.706;2022-12-20T06:01:02;5.00;99.90
4433;DHT22;2229;48.708;9.706;2022-12-20T06:03:34;5.10;99.90
4433;DHT22;2229;48.708;9.706;2022-12-20T06:06:06;5.10;99.90
4433;DHT22;2229;48.708;9.706;2022-12-20T06:08:33;5.20;99.90
4433;DHT22;2229;48.708;9.706;2022-12-20T06:11:05;5.30;99.90
4433;DHT22;2229;48.708;9.706;2022-12-20T06:13:42;5.40;99.90
4433;DHT22;2229;48.708;9.706;2022-12-20T06:16:10;5.40;99.90
4433;DHT22;2229;48.708;9.706;2022-12-20T06:18:38;5.50;99.90
4433;DHT22;2229;48.708;9.706;2022-12-20T06:21:05;5.50;99.90
4433;DHT22;2229;48.708;9.706;2022-12-20T06:23:33;5.60;99.90
4433;DHT22;2229;48.708;9.706;2022-12-20T06:26:10;5.60;99.90
4433;DHT22;2229;48.708;9.706;2022-12-20T06:28:56;5.60;99.90
4433;DHT22;2229;48.708;9.706;2022-12-20T06:31:36;5.60;99.90
4433;DHT22;2229;48.708;9.706;2022-12-20T06:34:03;5.60;99.90
4433;DHT22;2229;48.708;9.706;2022-12-20T06:36:34;5.60;99.90
4433;DHT22;2229;48.708;9.706;2022-12-20T06:39:02;5.60;99.90
4433;DHT22;2229;48.708;9.706;2022-12-20T06:41:30;5.60;99.90
4433;DHT22;2229;48.708;9.706;2022-12-20T06:43:57;5.60;99.90
4433;DHT22;2229;48.708;9.706;2022-12-20T06:46:24;5.70;99.90
4433;DHT22;2229;48.708;9.706;2022-12-20T06:48:56;5.70;99.90
4433;DHT22;2229;48.708;9.706;2022-12-20T06:51:25;5.80;99.90
4433;DHT22;2229;48.708;9.706;2022-12-20T06:53:55;5.80;99.90
4433;DHT22;2229;48.708;9.706;2022-12-20T06:56:22;5.80;99.90
4433;DHT22;2229;48.708;9.706;2022-12-20T06:58:50;5.80;99.90
4433;DHT22;2229;48.708;9.706;2022-12-20T07:01:17;5.80;99.90
4433;DHT22;2229;48.708;9.706;2022-12-20T07:03:45;5.90;99.90
4433;DHT22;2229;48.708;9.706;2022-12-20T07:06:14;5.90;99.90
4433;DHT22;2229;48.708;9.706;2022-12-20T07:08:41;5.90;99.90
4433;DHT22;2229;48.708;9.706;2022-12-20T07:11:09;5.90;99.90
4433;DHT22;2229;48.708;9.706;2022-12-20T07:13:37;5.90;99.90
4433;DHT22;2229;48.708;9.706;2022-12-20T07:16:06;5.90;99.90
4433;DHT22;2229;48.708;9.706;2022-12-20T07:18:33;5.90;99.90
4433;DHT22;2229;48.708;9.706;2022-12-20T07:21:02;5.90;99.90
4433;DHT22;2229;48.708;9.706;2022-12-20T07:23:31;5.90;99.90
4433;DHT22;2229;48.708;9.706;2022-12-20T07:26:00;5.80;99.90
4433;DHT22;2229;48.708;9.706;2022-12-20T07:28:28;5.90;99.90
4433;DHT22;2229;48.708;9.706;2022-12-20T07:31:00;5.80;99.90
4433;DHT22;2229;48.708;9.706;2022-12-20T07:33:27;5.90;99.90
4433;DHT22;2229;48.708;9.706;2022-12-20T07:35:59;5.90;99.90
4433;DHT22;2229;48.708;9.706;2022-12-20T07:38:27;6.10;99.90
4433;DHT22;2229;48.708;9.706;2022-12-20T07:40:56;6.00;99.90
4433;DHT22;2229;48.708;9.706;2022-12-20T07:43:23;6.00;99.90
4433;DHT22;2229;48.708;9.706;2022-12-20T07:45:54;6.00;99.90
4433;DHT22;2229;48.708;9.706;2022-12-20T07:48:21;6.00;99.90
4433;DHT22;2229;48.708;9.706;2022-12-20T07:50:51;6.10;99.90
4433;DHT22;2229;48.708;9.706;2022-12-20T07:53:19;6.00;99.90
4433;DHT22;2229;48.708;9.706;2022-12-20T07:55:48;6.00;99.90
4433;DHT22;2229;48.708;9.706;2022-12-20T07:58:17;6.00;99.90
4433;DHT22;2229;48.708;9.706;2022-12-20T08:00:46;6.00;99.90
4433;DHT22;2229;48.708;9.706;2022-12-20T08:03:16;5.90;99.90
4433;DHT22;2229;48.708;9.706;2022-12-20T08:05:47;5.90;99.90
4433;DHT22;2229;48.708;9.706;2022-12-20T08:08:16;5.80;99.90
4433;DHT22;2229;48.708;9.706;2022-12-20T08:10:45;5.70;99.90
4433;DHT22;2229;48.708;9.706;2022-12-20T08:13:13;5.50;99.90
4433;DHT22;2229;48.708;9.706;2022-12-20T08:15:42;5.40;99.90
4433;DHT22;2229;48.708;9.706;2022-12-20T08:18:09;5.30;99.90
4433;DHT22;2229;48.708;9.706;2022-12-20T08:20:36;5.10;99.80
4433;DHT22;2229;48.708;9.706;2022-12-20T08:23:04;5.00;99.90
4433;DHT22;2229;48.708;9.706;2022-12-20T08:25:33;5.00;99.90
4433;DHT22;2229;48.708;9.706;2022-12-20T08:28:01;5.00;99.90
4433;DHT22;2229;48.708;9.706;2022-12-20T08:30:29;4.90;99.90
4433;DHT22;2229;48.708;9.706;2022-12-20T08:32:58;4.90;99.90
4433;DHT22;2229;48.708;9.706;2022-12-20T08:35:25;4.90;99.90
4433;DHT22;2229;48.708;9.706;2022-12-20T08:37:53;5.00;99.90
4433;DHT22;2229;48.708;9.706;2022-12-20T08:40:21;5.00;99.90
4433;DHT22;2229;48.708;9.706;2022-12-20T08:42:49;5.10;99.90
4433;DHT22;2229;48.708;9.706;2022-12-20T08:45:16;5.10;99.90
4433;DHT22;2229;48.708;9.706;2022-12-20T08:47:45;5.20;99.90
4433;DHT22;2229;48.708;9.706;2022-12-20T08:50:14;5.20;99.90
4433;DHT22;2229;48.708;9.706;2022-12-20T08:52:41;5.20;99.90
4433;DHT22;2229;48.708;9.706;2022-12-20T08:55:09;5.30;99.90
4433;DHT22;2229;48.708;9.706;2022-12-20T08:57:36;5.30;99.90
4433;DHT22;2229;48.708;9.706;2022-12-20T09:00:04;5.30;99.90
4433;DHT22;2229;48.708;9.706;2022-12-20T09:02:33;5.30;99.90
4433;DHT22;2229;48.708;9.706;2022-12-20T09:05:00;5.30;99.90
4433;DHT22;2229;48.708;9.706;2022-12-20T09:07:29;5.30;99.90
4433;DHT22;2229;48.708;9.706;2022-12-20T09:09:56;5.40;99.90
4433;DHT22;2229;48.708;9.706;2022-12-20T09:12:24;5.50;99.90
4433;DHT22;2229;48.708;9.706;2022-12-20T09:14:51;5.50;99.90
4433;DHT22;2229;48.708;9.706;2022-12-20T09:17:19;5.50;99.90
4433;DHT22;2229;48.708;9.706;2022-12-20T09:19:46;5.60;99.90
4433;DHT22;2229;48.708;9.706;2022-12-20T09:22:14;5.70;99.90
4433;DHT22;2229;48.708;9.706;2022-12-20T09:24:43;5.70;99.90
4433;DHT22;2229;48.708;9.706;2022-12-20T09:27:11;5.70;99.90
4433;DHT22;2229;48.708;9.706;2022-12-20T09:29:38;5.80;99.90
4433;DHT22;2229;48.708;9.706;2022-12-20T09:32:05;5.90;99.90
4433;DHT22;2229;48.708;9.706;2022-12-20T09:34:34;5.90;99.90
4433;DHT22;2229;48.708;9.706;2022-12-20T09:37:01;6.00;99.90
4433;DHT22;2229;48.708;9.706;2022-12-20T09:39:28;6.00;99.90
4433;DHT22;2229;48.708;9.706;2022-12-20T09:41:57;6.10;99.90
4433;DHT22;2229;48.708;9.706;2022-12-20T09:44:28;6.10;99.90
4433;DHT22;2229;48.708;9.706;2022-12-20T09:46:59;6.20;99.90
4433;DHT22;2229;48.708;9.706;2022-12-20T09:49:29;6.20;99.90
4433;DHT22;2229;48.708;9.706;2022-12-20T09:52:26;6.20;99.90
4433;DHT22;2229;48.708;9.706;2022-12-20T09:55:00;6.30;99.90
4433;DHT22;2229;48.708;9.706;2022-12-20T09:57:47;6.30;99.90
4433;DHT22;2229;48.708;9.706;2022-12-20T10:00:20;6.40;99.90
4433;DHT22;2229;48.708;9.706;2022-12-20T10:02:48;6.50;99.90
4433;DHT22;2229;48.708;9.706;2022-12-20T10:05:18;6.60;99.90
4433;DHT22;2229;48.708;9.706;2022-12-20T10:07:52;6.80;99.90
4433;DHT22;2229;48.708;9.706;2022-12-20T10:10:35;7.00;99.90
4433;DHT22;2229;48.708;9.706;2022-12-20T10:13:18;7.30;99.90
4433;DHT22;2229;48.708;9.706;2022-12-20T10:15:53;7.60;99.90
4433;DHT22;2229;48.708;9.706;2022-12-20T10:18:31;7.80;99.90
4433;DHT22;2229;48.708;9.706;2022-12-20T10:21:10;8.00;99.90
4433;DHT22;2229;48.708;9.706;2022-12-20T10:23:45;8.20;99.90
4433;DHT22;2229;48.708;9.706;2022-12-20T10:26:14;8.30;99.90
4433;DHT22;2229;48.708;9.706;2022-12-20T10:28:43;8.40;99.90
4433;DHT22;2229;48.708;9.706;2022-12-20T10:31:12;8.40;99.60
4433;DHT22;2229;48.708;9.706;2022-12-20T10:33:40;8.60;99.90
4433;DHT22;2229;48.708;9.706;2022-12-20T10:36:22;8.70;99.60
4433;DHT22;2229;48.708;9.706;2022-12-20T10:38:53;8.80;99.30
4433;DHT22;2229;48.708;9.706;2022-12-20T10:41:23;8.90;98.70
4433;DHT22;2229;48.708;9.706;2022-12-20T10:43:56;9.00;98.30
4433;DHT22;2229;48.708;9.706;2022-12-20T10:46:34;8.90;97.70
4433;DHT22;2229;48.708;9.706;2022-12-20T10:49:22;9.00;97.90
4433;DHT22;2229;48.708;9.706;2022-12-20T10:51:53;8.90;97.20
4433;DHT22;2229;48.708;9.706;2022-12-20T10:54:23;8.90;97.00
4433;DHT22;2229;48.708;9.706;2022-12-20T10:56:54;8.90;96.70
4433;DHT22;2229;48.708;9.706;2022-12-20T10:59:30;8.90;96.60
4433;DHT22;2229;48.708;9.706;2022-12-20T11:01:59;8.90;96.40
4433;DHT22;2229;48.708;9.706;2022-12-20T11:04:28;9.00;96.40
4433;DHT22;2229;48.708;9.706;2022-12-20T11:06:56;8.90;96.30
4433;DHT22;2229;48.708;9.706;2022-12-20T11:09:27;8.90;96.20
4433;DHT22;2229;48.708;9.706;2022-12-20T11:12:03;8.90;96.20
4433;DHT22;2229;48.708;9.706;2022-12-20T11:14:35;8.90;96.00
4433;DHT22;2229;48.708;9.706;2022-12-20T11:17:06;8.90;96.00
4433;DHT22;2229;48.708;9.706;2022-12-20T11:20:00;9.00;96.00
4433;DHT22;2229;48.708;9.706;2022-12-20T11:22:38;9.00;96.00
4433;DHT22;2229;48.708;9.706;2022-12-20T11:25:31;9.00;96.00
4433;DHT22;2229;48.708;9.706;2022-12-20T11:28:16;9.00;96.00
4433;DHT22;2229;48.708;9.706;2022-12-20T11:30:56;9.00;96.00
4433;DHT22;2229;48.708;9.706;2022-12-20T11:36:30;8.80;95.70
4433;DHT22;2229;48.708;9.706;2022-12-20T11:39:08;8.70;95.70
4433;DHT22;2229;48.708;9.706;2022-12-20T11:41:44;8.60;95.70
4433;DHT22;2229;48.708;9.706;2022-12-20T11:44:21;8.50;95.90
4433;DHT22;2229;48.708;9.706;2022-12-20T11:47:03;8.40;96.10
4433;DHT22;2229;48.708;9.706;2022-12-20T11:50:00;8.40;96.10
4433;DHT22;2229;48.708;9.706;2022-12-20T11:52:34;8.20;96.10
4433;DHT22;2229;48.708;9.706;2022-12-20T11:55:06;8.10;96.20
4433;DHT22;2229;48.708;9.706;2022-12-20T11:57:53;8.00;96.20
4433;DHT22;2229;48.708;9.706;2022-12-20T12:00:23;7.90;96.40
4433;DHT22;2229;48.708;9.706;2022-12-20T12:03:00;7.80;96.50
4433;DHT22;2229;48.708;9.706;2022-12-20T12:05:36;7.80;96.70
4433;DHT22;2229;48.708;9.706;2022-12-20T12:08:12;7.70;96.80
4433;DHT22;2229;48.708;9.706;2022-12-20T12:10:43;7.70;97.00
4433;DHT22;2229;48.708;9.706;2022-12-20T12:13:14;7.60;97.20
4433;DHT22;2229;48.708;9.706;2022-12-20T12:15:49;7.60;97.30
4433;DHT22;2229;48.708;9.706;2022-12-20T12:18:25;7.60;97.60
4433;DHT22;2229;48.708;9.706;2022-12-20T12:20:58;7.60;97.80
4433;DHT22;2229;48.708;9.706;2022-12-20T12:23:38;7.60;98.00
4433;DHT22;2229;48.708;9.706;2022-12-20T12:26:11;7.60;98.40
4433;DHT22;2229;48.708;9.706;2022-12-20T12:28:39;7.60;98.30
4433;DHT22;2229;48.708;9.706;2022-12-20T12:31:11;7.70;98.40
4433;DHT22;2229;48.708;9.706;2022-12-20T12:33:45;7.70;98.50
4433;DHT22;2229;48.708;9.706;2022-12-20T12:36:30;7.80;98.50
4433;DHT22;2229;48.708;9.706;2022-12-20T12:42:21;7.80;98.50
4433;DHT22;2229;48.708;9.706;2022-12-20T12:44:57;7.70;98.40
4433;DHT22;2229;48.708;9.706;2022-12-20T12:47:34;7.70;98.50
4433;DHT22;2229;48.708;9.706;2022-12-20T12:50:08;7.70;98.50
4433;DHT22;2229;48.708;9.706;2022-12-20T12:52:43;7.60;98.50
4433;DHT22;2229;48.708;9.706;2022-12-20T12:55:41;7.60;98.50
4433;DHT22;2229;48.708;9.706;2022-12-20T12:58:31;7.60;98.60
4433;DHT22;2229;48.708;9.706;2022-12-20T13:01:00;7.50;98.60
4433;DHT22;2229;48.708;9.706;2022-12-20T13:04:10;7.50;98.70
4433;DHT22;2229;48.708;9.706;2022-12-20T13:07:24;7.60;98.80
4433;DHT22;2229;48.708;9.706;2022-12-20T13:09:51;7.60;98.80
4433;DHT22;2229;48.708;9.706;2022-12-20T13:12:56;7.50;98.70
4433;DHT22;2229;48.708;9.706;2022-12-20T13:15:45;7.60;98.80
4433;DHT22;2229;48.708;9.706;2022-12-20T13:18:22;7.50;98.80
4433;DHT22;2229;48.708;9.706;2022-12-20T13:21:17;7.50;98.80
4433;DHT22;2229;48.708;9.706;2022-12-20T13:23:46;7.50;99.00
4433;DHT22;2229;48.708;9.706;2022-12-20T13:29:23;7.50;99.10
4433;DHT22;2229;48.708;9.706;2022-12-20T13:31:51;7.50;99.10
4433;DHT22;2229;48.708;9.706;2022-12-20T13:34:38;7.60;99.20
4433;DHT22;2229;48.708;9.706;2022-12-20T13:37:49;7.60;99.30
4433;DHT22;2229;48.708;9.706;2022-12-20T13:40:20;7.60;99.30
4433;DHT22;2229;48.708;9.706;2022-12-20T13:42:52;7.70;99.30
4433;DHT22;2229;48.708;9.706;2022-12-20T13:45:21;7.70;99.30
4433;DHT22;2229;48.708;9.706;2022-12-20T13:47:53;7.70;99.30
4433;DHT22;2229;48.708;9.706;2022-12-20T13:50:27;7.80;99.40
4433;DHT22;2229;48.708;9.706;2022-12-20T13:52:58;7.70;99.20
4433;DHT22;2229;48.708;9.706;2022-12-20T13:55:35;7.80;99.30
4433;DHT22;2229;48.708;9.706;2022-12-20T13:58:05;7.80;99.20
4433;DHT22;2229;48.708;9.706;2022-12-20T14:00:35;7.80;99.20
4433;DHT22;2229;48.708;9.706;2022-12-20T14:03:05;7.70;99.20
4433;DHT22;2229;48.708;9.706;2022-12-20T14:05:36;8.00;99.40
4433;DHT22;2229;48.708;9.706;2022-12-20T14:08:07;7.70;99.20
4433;DHT22;2229;48.708;9.706;2022-12-20T14:10:51;7.70;99.10
4433;DHT22;2229;48.708;9.706;2022-12-20T14:13:22;7.60;99.20
4433;DHT22;2229;48.708;9.706;2022-12-20T14:15:53;7.60;99.20
4433;DHT22;2229;48.708;9.706;2022-12-20T14:18:25;7.60;99.20
4433;DHT22;2229;48.708;9.706;2022-12-20T14:20:54;7.60;99.20
4433;DHT22;2229;48.708;9.706;2022-12-20T14:23:28;7.50;99.20
4433;DHT22;2229;48.708;9.706;2022-12-20T14:26:01;7.50;99.20
4433;DHT22;2229;48.708;9.706;2022-12-20T14:28:34;7.50;99.30
4433;DHT22;2229;48.708;9.706;2022-12-20T14:31:04;7.40;99.30
4433;DHT22;2229;48.708;9.706;2022-12-20T14:33:34;7.30;99.40
4433;DHT22;2229;48.708;9.706;2022-12-20T14:36:15;7.20;99.50
4433;DHT22;2229;48.708;9.706;2022-12-20T14:38:45;7.20;99.60
4433;DHT22;2229;48.708;9.706;2022-12-20T14:41:36;7.20;99.60
4433;DHT22;2229;48.708;9.706;2022-12-20T14:44:14;7.30;99.70
4433;DHT22;2229;48.708;9.706;2022-12-20T14:46:47;7.30;99.70
4433;DHT22;2229;48.708;9.706;2022-12-20T14:49:24;7.40;99.70
4433;DHT22;2229;48.708;9.706;2022-12-20T14:52:06;7.40;99.70
4433;DHT22;2229;48.708;9.706;2022-12-20T14:54:42;7.40;99.60
4433;DHT22;2229;48.708;9.706;2022-12-20T14:57:21;7.40;99.60
4433;DHT22;2229;48.708;9.706;2022-12-20T14:59:58;7.30;99.60
4433;DHT22;2229;48.708;9.706;2022-12-20T15:02:39;7.30;99.70
4433;DHT22;2229;48.708;9.706;2022-12-20T15:05:34;7.20;99.80
4433;DHT22;2229;48.708;9.706;2022-12-20T15:08:10;7.10;99.90
4433;DHT22;2229;48.708;9.706;2022-12-20T15:10:37;7.20;99.90
4433;DHT22;2229;48.708;9.706;2022-12-20T15:13:11;7.20;99.90
4433;DHT22;2229;48.708;9.706;2022-12-20T15:15:40;7.30;99.90
4433;DHT22;2229;48.708;9.706;2022-12-20T15:18:10;7.30;99.90
4433;DHT22;2229;48.708;9.706;2022-12-20T15:20:40;7.40;99.90
4433;DHT22;2229;48.708;9.706;2022-12-20T15:23:12;7.50;99.70
4433;DHT22;2229;48.708;9.706;2022-12-20T15:25:41;7.60;99.60
4433;DHT22;2229;48.708;9.706;2022-12-20T15:28:25;7.60;99.40
4433;DHT22;2229;48.708;9.706;2022-12-20T15:30:53;7.60;99.40
4433;DHT22;2229;48.708;9.706;2022-12-20T15:33:22;7.60;99.30
4433;DHT22;2229;48.708;9.706;2022-12-20T15:35:51;7.60;99.20
4433;DHT22;2229;48.708;9.706;2022-12-20T15:38:21;7.70;99.00
4433;DHT22;2229;48.708;9.706;2022-12-20T15:40:51;7.70;98.80
4433;DHT22;2229;48.708;9.706;2022-12-20T15:43:21;7.80;98.70
4433;DHT22;2229;48.708;9.706;2022-12-20T15:45:52;8.00;98.60
4433;DHT22;2229;48.708;9.706;2022-12-20T15:48:21;8.00;98.20
4433;DHT22;2229;48.708;9.706;2022-12-20T15:50:51;8.10;97.80
4433;DHT22;2229;48.708;9.706;2022-12-20T15:53:22;8.20;97.60
4433;DHT22;2229;48.708;9.706;2022-12-20T15:55:54;8.30;97.40
4433;DHT22;2229;48.708;9.706;2022-12-20T15:58:22;8.40;97.50
4433;DHT22;2229;48.708;9.706;2022-12-20T16:00:53;8.40;96.90
4433;DHT22;2229;48.708;9.706;2022-12-20T16:03:24;8.50;96.70
4433;DHT22;2229;48.708;9.706;2022-12-20T16:05:52;8.50;96.50
4433;DHT22;2229;48.708;9.706;2022-12-20T16:08:21;8.50;96.60
4433;DHT22;2229;48.708;9.706;2022-12-20T16:10:50;8.40;96.60
4433;DHT22;2229;48.708;9.706;2022-12-20T16:13:21;8.30;96.70
4433;DHT22;2229;48.708;9.706;2022-12-20T16:15:48;8.30;97.00
4433;DHT22;2229;48.708;9.706;2022-12-20T16:18:17;8.20;96.60
4433;DHT22;2229;48.708;9.706;2022-12-20T16:20:44;8.20;96.50
4433;DHT22;2229;48.708;9.706;2022-12-20T16:23:17;8.20;96.30
4433;DHT22;2229;48.708;9.706;2022-12-20T16:25:45;8.20;96.30
4433;DHT22;2229;48.708;9.706;2022-12-20T16:28:13;8.30;96.10
4433;DHT22;2229;48.708;9.706;2022-12-20T16:30:40;8.30;96.00
4433;DHT22;2229;48.708;9.706;2022-12-20T16:33:19;8.40;96.00
4433;DHT22;2229;48.708;9.706;2022-12-20T16:35:47;8.40;95.80
4433;DHT22;2229;48.708;9.706;2022-12-20T16:38:14;8.40;95.70
4433;DHT22;2229;48.708;9.706;2022-12-20T16:40:41;8.40;95.50
4433;DHT22;2229;48.708;9.706;2022-12-20T16:43:12;8.40;95.40
4433;DHT22;2229;48.708;9.706;2022-12-20T16:45:42;8.50;95.40
4433;DHT22;2229;48.708;9.706;2022-12-20T16:48:09;8.60;95.20
4433;DHT22;2229;48.708;9.706;2022-12-20T16:50:39;8.60;95.10
4433;DHT22;2229;48.708;9.706;2022-12-20T16:53:12;8.60;94.90
4433;DHT22;2229;48.708;9.706;2022-12-20T16:55:41;8.70;94.90
4433;DHT22;2229;48.708;9.706;2022-12-20T16:58:09;8.70;94.80